createdAt,value
2022-07-28T03:01:43.951Z,99.90
2022-07-28T03:04:14.159Z,99.90
2022-07-28T03:06:43.126Z,99.90
2022-07-28T03:09:10.566Z,99.90
2022-07-28T03:11:52.192Z,99.90
2022-07-28T03:14:19.465Z,99.90
2022-07-28T03:16:47.695Z,99.90
2022-07-28T03:19:17.167Z,99.90
2022-07-28T03:21:47.539Z,99.90
2022-07-28T03:24:16.982Z,99.90
2022-07-28T03:26:53.421Z,99.90
2022-07-28T03:29:22.417Z,99.90
2022-07-28T03:31:54.273Z,99.90
2022-07-28T03:34:21.570Z,99.90
2022-07-28T03:36:54.796Z,99.90
2022-07-28T03:39:24.557Z,99.90
2022-07-28T03:41:53.152Z,99.90
2022-07-28T03:44:27.862Z,99.90
2022-07-28T03:46:56.847Z,99.90
2022-07-28T03:49:24.171Z,99.90
2022-07-28T03:51:51.379Z,99.90
2022-07-28T03:54:18.659Z,99.90
2022-07-28T03:56:45.903Z,99.90
2022-07-28T03:59:13.049Z,99.90
2022-07-28T04:01:40.477Z,99.90
2022-07-28T04:04:07.793Z,99.90
2022-07-28T04:06:35.011Z,99.90
2022-07-28T04:09:02.418Z,99.90
2022-07-28T04:11:29.678Z,99.90
2022-07-28T04:13:57.015Z,99.90
2022-07-28T04:16:24.647Z,99.90
2022-07-28T04:18:51.861Z,99.90
2022-07-28T04:21:19.081Z,99.90
2022-07-28T04:23:46.249Z,99.90
2022-07-28T04:26:13.657Z,99.90
2022-07-28T04:28:40.829Z,99.90
2022-07-28T04:31:08.087Z,99.90
2022-07-28T04:33:35.369Z,99.90
2022-07-28T04:36:02.709Z,99.90
2022-07-28T04:38:29.921Z,99.90
2022-07-28T04:40:57.561Z,99.90
2022-07-28T04:43:24.725Z,99.90
2022-07-28T04:45:53.317Z,99.90
2022-07-28T04:48:22.993Z,99.90
2022-07-28T04:50:52.461Z,99.90
2022-07-28T04:53:20.055Z,99.90
2022-07-28T04:55:47.781Z,99.90
2022-07-28T04:58:18.313Z,99.90
2022-07-28T05:00:49.902Z,99.90
2022-07-28T05:03:18.686Z,99.90
2022-07-28T05:05:47.483Z,99.90
2022-07-28T05:08:21.428Z,99.90
2022-07-28T05:10:49.026Z,99.90
2022-07-28T05:13:16.248Z,99.90
2022-07-28T05:15:43.519Z,99.90
2022-07-28T05:18:10.767Z,99.90
2022-07-28T05:20:37.985Z,99.90
2022-07-28T05:23:05.416Z,99.90
2022-07-28T05:25:32.610Z,99.90
2022-07-28T05:27:59.883Z,99.90
2022-07-28T05:30:27.217Z,99.90
2022-07-28T05:32:59.108Z,99.90
2022-07-28T05:35:26.572Z,99.90
2022-07-28T05:37:53.765Z,99.90
2022-07-28T05:40:21.012Z,99.90
2022-07-28T05:42:48.534Z,99.90
2022-07-28T05:45:17.602Z,99.90
2022-07-28T05:47:46.419Z,99.90
2022-07-28T05:50:15.426Z,99.90
2022-07-28T05:52:42.921Z,99.90
2022-07-28T05:55:10.624Z,99.90
2022-07-28T05:57:38.458Z,99.90
2022-07-28T06:00:14.090Z,99.90
2022-07-28T06:02:42.324Z,99.90
2022-07-28T06:05:09.943Z,99.90
2022-07-28T06:07:43.325Z,99.90
2022-07-28T06:10:16.672Z,99.90
2022-07-28T06:12:46.055Z,99.90
2022-07-28T06:15:14.915Z,99.90
2022-07-28T06:17:42.876Z,99.90
2022-07-28T06:20:11.519Z,99.90
2022-07-28T06:22:44.233Z,99.90
2022-07-28T06:25:41.579Z,99.90
2022-07-28T06:28:08.742Z,99.90
2022-07-28T06:30:35.936Z,99.90
2022-07-28T06:33:05.584Z,99.90
2022-07-28T06:35:33.668Z,99.90
2022-07-28T06:38:13.923Z,99.90
2022-07-28T06:40:43.138Z,99.90
2022-07-28T06:43:10.412Z,99.90
2022-07-28T06:45:37.630Z,99.90
2022-07-28T06:48:05.184Z,99.90
2022-07-28T06:50:33.020Z,99.20
2022-07-28T06:53:00.252Z,99.30
2022-07-28T06:55:28.491Z,98.30
2022-07-28T06:58:03.304Z,95.90
2022-07-28T07:00:31.032Z,96.30
2022-07-28T07:02:58.368Z,96.60
2022-07-28T07:05:27.796Z,96.20
2022-07-28T07:07:55.120Z,95.80
2022-07-28T07:10:22.375Z,94.20
2022-07-28T07:12:49.588Z,96.30
2022-07-28T07:15:16.837Z,95.30
2022-07-28T07:17:44.056Z,96.10
2022-07-28T07:20:13.439Z,96.40
2022-07-28T07:22:49.564Z,93.80
2022-07-28T07:25:18.676Z,94.70
2022-07-28T07:27:46.965Z,94.00
2022-07-28T07:30:15.166Z,92.20
2022-07-28T07:32:42.995Z,91.40
2022-07-28T07:35:10.723Z,92.20
2022-07-28T07:37:37.964Z,91.40
2022-07-28T07:40:06.370Z,90.70
2022-07-28T07:42:33.700Z,90.90
2022-07-28T07:45:00.874Z,91.30
2022-07-28T07:47:28.119Z,90.80
2022-07-28T07:49:55.393Z,91.70
2022-07-28T07:52:22.597Z,90.40
2022-07-28T07:54:49.974Z,89.00
2022-07-28T07:57:17.172Z,87.70
2022-07-28T07:59:44.376Z,90.00
2022-07-28T08:02:11.619Z,86.60
2022-07-28T08:04:39.136Z,88.30
2022-07-28T08:07:07.727Z,86.70
2022-07-28T08:09:35.433Z,88.20
2022-07-28T08:12:03.494Z,88.80
2022-07-28T08:14:30.719Z,86.40
2022-07-28T08:16:59.305Z,89.70
2022-07-28T08:19:27.075Z,88.50
2022-07-28T08:21:55.425Z,86.00
2022-07-28T08:24:27.735Z,88.30
2022-07-28T08:27:04.708Z,90.90
2022-07-28T08:29:32.307Z,92.20
2022-07-28T08:32:01.336Z,91.20
2022-07-28T08:34:32.967Z,91.00
2022-07-28T08:37:05.487Z,87.60
2022-07-28T08:39:34.533Z,90.50
2022-07-28T08:42:15.265Z,90.50
2022-07-28T08:44:58.916Z,90.40
2022-07-28T08:47:40.438Z,82.40
2022-07-28T08:50:14.027Z,77.30
2022-07-28T08:52:45.522Z,80.50
2022-07-28T08:55:19.380Z,78.40
2022-07-28T08:57:47.385Z,85.60
2022-07-28T09:00:14.959Z,85.90
2022-07-28T09:02:52.269Z,82.90
2022-07-28T09:05:21.431Z,77.40
2022-07-28T09:07:54.462Z,77.10
2022-07-28T09:10:23.124Z,77.50
2022-07-28T09:12:50.581Z,77.20
2022-07-28T09:15:17.789Z,76.00
2022-07-28T09:17:45.039Z,76.50
2022-07-28T09:20:12.929Z,77.50
2022-07-28T09:22:58.327Z,76.60
2022-07-28T09:25:26.758Z,78.40
2022-07-28T09:27:54.994Z,79.90
2022-07-28T09:30:33.216Z,81.80
2022-07-28T09:33:12.196Z,81.70
2022-07-28T09:35:59.796Z,80.80
2022-07-28T09:38:40.775Z,84.30
2022-07-28T09:41:08.007Z,86.60
2022-07-28T09:43:38.945Z,86.80
2022-07-28T09:46:09.390Z,83.40
2022-07-28T09:48:50.552Z,84.20
2022-07-28T09:51:31.513Z,83.50
2022-07-28T09:54:14.811Z,85.50
2022-07-28T09:56:44.505Z,85.20
2022-07-28T09:59:15.006Z,85.50
2022-07-28T10:02:01.790Z,85.10
2022-07-28T10:04:38.181Z,83.40
2022-07-28T10:07:19.528Z,86.40
2022-07-28T10:10:02.810Z,86.60
2022-07-28T10:12:33.232Z,89.80
2022-07-28T10:15:33.505Z,89.20
2022-07-28T10:18:01.318Z,88.20
2022-07-28T10:20:28.995Z,90.10
2022-07-28T10:23:04.296Z,86.70
2022-07-28T10:25:33.595Z,88.30
2022-07-28T10:28:03.144Z,88.10
2022-07-28T10:30:35.023Z,90.00
2022-07-28T10:33:08.770Z,90.30
2022-07-28T10:35:54.410Z,90.10
2022-07-28T10:38:27.925Z,90.10
2022-07-28T10:40:58.346Z,87.50
2022-07-28T10:43:26.786Z,90.00
2022-07-28T10:46:05.628Z,89.60
2022-07-28T10:48:35.674Z,88.80
2022-07-28T10:51:03.130Z,90.30
2022-07-28T10:53:37.363Z,90.40
2022-07-28T10:56:26.119Z,87.20
2022-07-28T10:59:28.936Z,89.30
2022-07-28T11:01:56.486Z,90.30
2022-07-28T11:04:48.745Z,90.60
2022-07-28T11:07:20.895Z,90.90
2022-07-28T11:09:48.609Z,90.70
2022-07-28T11:12:16.335Z,90.40
2022-07-28T11:14:44.811Z,89.00
2022-07-28T11:17:23.943Z,89.50
2022-07-28T11:20:25.163Z,89.00
2022-07-28T11:22:42.114Z,88.80
2022-07-28T11:25:20.637Z,91.10
2022-07-28T11:27:54.279Z,90.00
2022-07-28T11:30:36.450Z,90.00
2022-07-28T11:33:09.248Z,89.00
2022-07-28T11:35:39.711Z,90.20
2022-07-28T11:38:14.242Z,90.30
2022-07-28T11:40:42.659Z,91.90
2022-07-28T11:43:35.742Z,91.90
2022-07-28T11:46:04.477Z,92.00
2022-07-28T11:48:32.938Z,90.40
2022-07-28T11:51:03.054Z,90.70
2022-07-28T11:53:34.494Z,90.90
2022-07-28T11:56:07.045Z,90.20
2022-07-28T11:58:34.591Z,90.80
2022-07-28T12:01:20.071Z,91.40
2022-07-28T12:03:55.770Z,91.80
2022-07-28T12:06:26.315Z,90.80
2022-07-28T12:09:02.513Z,89.80
2022-07-28T12:11:35.264Z,90.30
2022-07-28T12:14:11.565Z,90.50
2022-07-28T12:16:41.065Z,90.20
2022-07-28T12:19:09.953Z,89.80
2022-07-28T12:21:49.317Z,91.20
2022-07-28T12:24:31.888Z,90.90
2022-07-28T12:27:13.629Z,89.80
2022-07-28T12:29:42.791Z,88.80
2022-07-28T12:32:10.683Z,87.70
2022-07-28T12:34:40.518Z,88.00
2022-07-28T12:37:12.248Z,89.20
2022-07-28T12:39:43.217Z,89.10
2022-07-28T12:42:13.564Z,90.00
2022-07-28T12:44:42.859Z,91.30
2022-07-28T12:47:12.742Z,90.00
2022-07-28T12:49:42.828Z,90.40
2022-07-28T12:52:21.416Z,90.20
2022-07-28T12:54:55.754Z,90.90
2022-07-28T12:57:59.146Z,86.80
2022-07-28T13:00:32.075Z,86.60
2022-07-28T13:03:01.330Z,88.40
2022-07-28T13:05:29.671Z,87.70
2022-07-28T13:08:05.694Z,87.90
2022-07-28T13:10:33.391Z,87.00
2022-07-28T13:13:06.764Z,87.60
2022-07-28T13:15:34.345Z,86.50
2022-07-28T13:18:01.962Z,86.40
2022-07-28T13:20:29.275Z,87.50
2022-07-28T13:22:57.583Z,89.10
2022-07-28T13:25:24.844Z,90.20
2022-07-28T13:27:55.591Z,87.20
2022-07-28T13:30:24.003Z,86.30
2022-07-28T13:32:51.857Z,86.60
2022-07-28T13:35:20.928Z,86.90
2022-07-28T13:37:48.932Z,87.40
2022-07-28T13:40:16.265Z,86.70
2022-07-28T13:42:53.027Z,85.70
2022-07-28T13:45:24.559Z,88.80
2022-07-28T13:47:52.299Z,88.00
2022-07-28T13:50:20.858Z,86.80
2022-07-28T13:52:48.606Z,86.80
2022-07-28T13:55:17.663Z,86.50
2022-07-28T13:57:49.260Z,90.00
2022-07-28T14:00:18.785Z,87.20
2022-07-28T14:02:49.200Z,86.60
2022-07-28T14:05:16.951Z,88.50
2022-07-28T14:07:48.887Z,87.10
2022-07-28T14:10:18.143Z,87.40
2022-07-28T14:12:46.503Z,85.80
2022-07-28T14:15:14.496Z,85.60
2022-07-28T14:17:44.102Z,85.70
2022-07-28T14:20:16.071Z,86.20
2022-07-28T14:22:44.582Z,86.60
2022-07-28T14:25:19.786Z,85.20
2022-07-28T14:27:49.644Z,82.30
2022-07-28T14:30:18.529Z,82.30
2022-07-28T14:32:45.957Z,83.80
2022-07-28T14:35:13.297Z,83.00
2022-07-28T14:38:23.252Z,85.20
2022-07-28T14:40:27.898Z,83.50
2022-07-28T14:42:55.110Z,82.50
2022-07-28T14:45:22.325Z,81.90
2022-07-28T14:47:49.625Z,83.60
2022-07-28T14:50:16.820Z,82.00
2022-07-28T14:52:45.102Z,80.00
2022-07-28T14:55:13.214Z,79.60
2022-07-28T14:57:51.745Z,78.80
2022-07-28T15:00:23.677Z,78.40
2022-07-28T15:02:52.992Z,77.40
2022-07-28T15:05:21.881Z,79.20
2022-07-28T15:07:51.806Z,77.60
2022-07-28T15:10:19.873Z,77.20
2022-07-28T15:12:47.761Z,77.20
2022-07-28T15:15:16.168Z,76.90
2022-07-28T15:17:43.484Z,76.60
2022-07-28T15:20:11.348Z,79.80
2022-07-28T15:22:38.645Z,77.40
2022-07-28T15:25:06.329Z,78.20
2022-07-28T15:27:34.019Z,76.70
2022-07-28T15:30:02.851Z,77.00
2022-07-28T15:32:31.685Z,77.30
2022-07-28T15:34:59.456Z,77.00
2022-07-28T15:37:28.037Z,77.70
2022-07-28T15:39:55.608Z,77.50
2022-07-28T15:42:22.937Z,77.50
2022-07-28T15:44:51.512Z,78.70
2022-07-28T15:47:18.785Z,79.00
2022-07-28T15:49:45.980Z,77.20
2022-07-28T15:52:14.536Z,77.10
2022-07-28T15:54:42.105Z,76.90
2022-07-28T15:57:09.473Z,78.70
2022-07-28T15:59:49.717Z,79.30
2022-07-28T16:02:19.148Z,80.10
2022-07-28T16:04:54.191Z,80.10
2022-07-28T16:07:24.668Z,80.30
2022-07-28T16:09:54.600Z,80.90
2022-07-28T16:12:24.820Z,79.40
2022-07-28T16:14:53.989Z,79.30
2022-07-28T16:17:22.179Z,81.60
2022-07-28T16:19:51.208Z,82.50
2022-07-28T16:22:20.068Z,82.10
2022-07-28T16:24:47.561Z,83.50
2022-07-28T16:27:14.924Z,85.50
2022-07-28T16:29:42.994Z,85.50
2022-07-28T16:32:10.624Z,85.50
2022-07-28T16:34:37.890Z,85.30
2022-07-28T16:37:05.774Z,84.30
2022-07-28T16:39:34.534Z,84.70
2022-07-28T16:42:02.927Z,85.00
2022-07-28T16:44:31.137Z,85.30
2022-07-28T16:47:04.370Z,86.60
2022-07-28T16:49:31.829Z,85.50
2022-07-28T16:51:59.001Z,84.90
2022-07-28T16:54:26.414Z,85.50
2022-07-28T16:56:55.385Z,85.50
2022-07-28T16:59:23.091Z,86.10
2022-07-28T17:01:52.083Z,86.20
2022-07-28T17:04:20.348Z,85.90
2022-07-28T17:06:48.097Z,86.80
2022-07-28T17:09:16.018Z,86.70
2022-07-28T17:11:43.827Z,86.00
2022-07-28T17:14:12.720Z,87.30
2022-07-28T17:16:40.288Z,87.70
2022-07-28T17:19:07.562Z,86.70
2022-07-28T17:21:35.875Z,87.30
2022-07-28T17:24:03.772Z,87.80
2022-07-28T17:29:19.397Z,88.60
2022-07-28T17:31:46.775Z,88.90
2022-07-28T17:34:14.951Z,90.20
2022-07-28T17:36:45.276Z,90.00
2022-07-28T17:39:13.115Z,89.40
2022-07-28T17:41:40.384Z,89.20
2022-07-28T17:44:07.693Z,89.00
2022-07-28T17:46:35.052Z,87.50
2022-07-28T17:49:03.307Z,86.90
2022-07-28T17:51:30.997Z,85.90
2022-07-28T17:53:58.302Z,84.80
2022-07-28T17:56:26.000Z,84.40
2022-07-28T17:58:53.464Z,84.20
2022-07-28T18:01:20.870Z,85.00
2022-07-28T18:03:56.691Z,86.30
2022-07-28T18:06:34.325Z,87.70
2022-07-28T18:09:06.345Z,87.70
2022-07-28T18:11:58.016Z,88.60
2022-07-28T18:14:27.628Z,88.50
2022-07-28T18:16:55.423Z,90.00
2022-07-28T18:19:22.641Z,90.20
2022-07-28T18:21:50.020Z,90.20
2022-07-28T18:24:18.556Z,89.20
2022-07-28T18:26:46.113Z,89.10
2022-07-28T18:29:14.579Z,90.10
2022-07-28T18:31:46.444Z,90.10
2022-07-28T18:34:15.236Z,90.70
2022-07-28T18:36:43.106Z,90.70
2022-07-28T18:39:10.692Z,90.90
2022-07-28T18:41:47.289Z,91.50
2022-07-28T18:44:17.445Z,91.60
2022-07-28T18:46:45.690Z,90.80
2022-07-28T18:49:13.467Z,90.70
2022-07-28T18:51:45.548Z,91.00
2022-07-28T18:54:17.634Z,91.20
2022-07-28T18:56:49.373Z,91.50
2022-07-28T18:59:16.833Z,91.90
2022-07-28T19:01:44.379Z,91.90
2022-07-28T19:04:11.786Z,92.00
2022-07-28T19:06:39.192Z,92.30
2022-07-28T19:09:06.450Z,92.40
2022-07-28T19:11:33.812Z,92.70
2022-07-28T19:14:01.100Z,92.90
2022-07-28T19:16:28.326Z,93.20
2022-07-28T19:18:55.608Z,93.40
2022-07-28T19:21:24.292Z,93.40
2022-07-28T19:23:52.951Z,93.60
2022-07-28T19:26:21.599Z,94.20
2022-07-28T19:28:48.826Z,94.50
2022-07-28T19:31:16.174Z,94.50
2022-07-28T19:33:44.099Z,94.60
2022-07-28T19:36:13.717Z,94.80
2022-07-28T19:38:41.554Z,94.90
2022-07-28T19:41:09.360Z,95.10
2022-07-28T19:43:36.690Z,95.00
2022-07-28T19:46:04.370Z,95.40
2022-07-28T19:48:31.807Z,96.10
2022-07-28T19:50:59.002Z,96.30
2022-07-28T19:53:32.083Z,96.60
2022-07-28T19:55:59.826Z,96.80
2022-07-28T19:58:28.039Z,97.50
2022-07-28T20:00:56.468Z,97.60
2022-07-28T20:04:01.057Z,96.90
2022-07-28T20:06:12.641Z,97.20
2022-07-28T20:08:40.203Z,96.80
2022-07-28T20:11:08.068Z,96.90
2022-07-28T20:13:35.392Z,96.40
2022-07-28T20:16:02.555Z,96.40
2022-07-28T20:18:29.745Z,96.20
2022-07-28T20:20:57.467Z,96.80
2022-07-28T20:23:24.711Z,96.60
2022-07-28T20:25:51.935Z,96.00
2022-07-28T20:28:19.193Z,95.90
2022-07-28T20:30:46.483Z,99.20
2022-07-28T20:33:13.734Z,99.60
2022-07-28T20:35:40.986Z,99.90
2022-07-28T20:38:08.409Z,99.90
2022-07-28T20:40:36.008Z,99.90
2022-07-28T20:43:03.312Z,99.90
2022-07-28T20:45:31.670Z,99.90
2022-07-28T20:47:59.188Z,99.90
2022-07-28T20:50:26.615Z,99.90
2022-07-28T20:52:53.816Z,99.90
2022-07-28T20:55:21.154Z,99.90
2022-07-28T20:57:53.838Z,99.90
